Terminal Aerodrome Forecast
Issued by NWS

Home | Current Version | Previous Version | Text Only | Print | Product List | Glossary On
Versions: 1 2 3 4 5 6 7 8 9 10 11 12 13 14 15 16 17
000
FTUS45 KFGZ 301120
TAFSEZ
TAF
KSEZ 301120Z 3012/3112 VRB06KT P6SM SCT080
     FM302000 21010G18KT P6SM VCTS BKN070CB
      TEMPO 3020/3024 VRB15G30KT 4SM TSRA OVC060CB
     FM310200 VRB05KT P6SM SCT070=

USA.gov is the U.S. government's official web portal to all federal, state and local government web resources and services.